createdAt,value
2023-01-10T00:00:05.948Z,101945.19
2023-01-10T00:02:35.035Z,101944.25
2023-01-10T00:05:04.589Z,101941.81
2023-01-10T00:07:34.138Z,101944.47
2023-01-10T00:10:15.301Z,101907.78
2023-01-10T00:12:59.338Z,101940.19
2023-01-10T00:15:28.636Z,101930.63
2023-01-10T00:17:57.883Z,101931.94
2023-01-10T00:20:27.804Z,101931.94
2023-01-10T00:22:57.205Z,101943.81
2023-01-10T00:25:32.940Z,101948.75
2023-01-10T00:28:11.895Z,101931.72
2023-01-10T00:30:43.006Z,101933.75
2023-01-10T00:33:16.962Z,101951.00
2023-01-10T00:35:51.262Z,101940.69
2023-01-10T00:38:20.602Z,101934.41
2023-01-10T00:40:49.689Z,101922.75
2023-01-10T00:43:33.939Z,101914.94
2023-01-10T00:46:04.365Z,101916.22
2023-01-10T00:48:33.614Z,101922.75
2023-01-10T00:51:02.724Z,101921.41
2023-01-10T00:53:32.226Z,101904.19
2023-01-10T00:56:12.783Z,101916.44
2023-01-10T00:58:44.437Z,101899.91
2023-01-10T01:01:13.701Z,101885.63
2023-01-10T01:03:42.906Z,101905.72
2023-01-10T01:06:18.426Z,101891.88
2023-01-10T01:08:47.501Z,101903.03
2023-01-10T01:11:16.654Z,101896.97
2023-01-10T01:13:47.782Z,101895.72
2023-01-10T01:16:16.678Z,101906.91
2023-01-10T01:18:56.615Z,101895.03
2023-01-10T01:21:28.070Z,101890.09
2023-01-10T01:24:03.365Z,101894.41
2023-01-10T01:26:34.808Z,101856.88
2023-01-10T01:29:06.224Z,101877.63
2023-01-10T01:31:35.432Z,101855.66
2023-01-10T01:34:09.831Z,101866.41
2023-01-10T01:36:38.969Z,101872.09
2023-01-10T01:39:08.189Z,101873.22
2023-01-10T01:41:50.253Z,101837.69
2023-01-10T01:44:21.805Z,101817.50
2023-01-10T01:47:02.637Z,101815.25
2023-01-10T01:49:34.176Z,101818.84
2023-01-10T01:52:08.275Z,101838.84
2023-01-10T01:54:38.048Z,101825.31
2023-01-10T01:57:12.667Z,101803.91
2023-01-10T01:59:51.731Z,101862.84
2023-01-10T02:02:23.881Z,101859.28
2023-01-10T02:04:56.557Z,101865.28
2023-01-10T02:07:46.014Z,101874.84
2023-01-10T02:10:37.335Z,101837.66
2023-01-10T02:13:09.609Z,101891.19
2023-01-10T02:15:53.952Z,101881.53
2023-01-10T02:18:29.719Z,101877.63
2023-01-10T02:21:18.842Z,101878.22
2023-01-10T02:24:14.619Z,101897.88
2023-01-10T02:27:14.140Z,101885.19
2023-01-10T02:30:26.382Z,101887.69
2023-01-10T02:33:12.476Z,101871.22
2023-01-10T02:36:15.517Z,101875.72
2023-01-10T02:38:56.680Z,101874.06
2023-01-10T02:41:32.873Z,101876.00
2023-01-10T02:44:09.194Z,101857.63
2023-01-10T02:46:41.199Z,101873.16
2023-01-10T02:49:12.764Z,101879.84
2023-01-10T02:51:42.177Z,101860.94
2023-01-10T02:54:16.141Z,101876.78
2023-01-10T02:57:09.575Z,101869.38
2023-01-10T03:00:04.849Z,101871.28
2023-01-10T03:02:47.600Z,101833.84
2023-01-10T03:05:29.261Z,101870.09
2023-01-10T03:10:49.758Z,101864.03
2023-01-10T03:13:26.651Z,101864.56
2023-01-10T03:18:44.174Z,101836.13
2023-01-10T03:21:15.599Z,101871.66
2023-01-10T03:23:55.123Z,101875.38
2023-01-10T03:26:41.323Z,101871.19
2023-01-10T03:29:14.658Z,101862.56
2023-01-10T03:31:49.833Z,101795.34
2023-01-10T03:34:19.677Z,101859.16
2023-01-10T03:37:01.005Z,101879.44
2023-01-10T03:39:34.789Z,101883.84
2023-01-10T03:42:10.179Z,101877.84
2023-01-10T03:45:02.927Z,101880.72
2023-01-10T03:47:40.564Z,101862.34
2023-01-10T03:50:26.880Z,101890.22
2023-01-10T03:52:58.135Z,101883.97
2023-01-10T03:55:28.744Z,101890.66
2023-01-10T03:58:02.829Z,101884.13
2023-01-10T04:00:32.233Z,101879.69
2023-01-10T04:05:45.652Z,101826.81
2023-01-10T04:08:16.868Z,101873.59
2023-01-10T04:10:46.094Z,101870.31
2023-01-10T04:13:15.129Z,101859.41
2023-01-10T04:15:44.398Z,101879.50
2023-01-10T04:20:52.198Z,101871.25
2023-01-10T04:23:23.509Z,101872.59
2023-01-10T04:25:57.441Z,101880.25
2023-01-10T04:28:26.549Z,101861.31
2023-01-10T04:30:57.897Z,101888.16
2023-01-10T04:33:40.382Z,101886.94
2023-01-10T04:36:10.570Z,101893.94
2023-01-10T04:38:42.181Z,101893.63
2023-01-10T04:41:12.214Z,101904.19
2023-01-10T04:43:41.501Z,101874.84
2023-01-10T04:46:17.066Z,101914.50
2023-01-10T04:48:46.627Z,101913.69
2023-01-10T04:51:16.071Z,101909.53
2023-01-10T04:53:47.401Z,101917.25
2023-01-10T04:56:18.143Z,101916.69
2023-01-10T04:58:54.070Z,101919.56
2023-01-10T05:01:28.352Z,101920.75
2023-01-10T05:03:58.512Z,101914.00
2023-01-10T05:06:27.721Z,101932.34
2023-01-10T05:09:06.605Z,101922.47
2023-01-10T05:11:35.789Z,101928.53
2023-01-10T05:14:05.135Z,101927.19
2023-01-10T05:16:40.151Z,101909.66
2023-01-10T05:19:09.556Z,101927.03
2023-01-10T05:21:38.738Z,101918.41
2023-01-10T05:24:11.286Z,101918.75
2023-01-10T05:26:40.563Z,101916.38
2023-01-10T05:29:12.424Z,101936.41
2023-01-10T05:31:46.621Z,101929.56
2023-01-10T05:34:15.852Z,101936.81
2023-01-10T05:36:45.055Z,101924.50
2023-01-10T05:39:16.264Z,101940.38
2023-01-10T05:41:45.455Z,101937.75
2023-01-10T05:44:14.981Z,101945.19
2023-01-10T05:46:49.592Z,101917.63
2023-01-10T05:49:28.778Z,101945.59
2023-01-10T05:51:58.056Z,101959.94
2023-01-10T05:54:29.329Z,101966.13
2023-01-10T05:56:58.171Z,101971.63
2023-01-10T05:59:32.677Z,101971.59
2023-01-10T06:02:01.962Z,101973.28
2023-01-10T06:07:14.960Z,101979.44
2023-01-10T06:09:46.335Z,101988.56
2023-01-10T06:12:15.156Z,101994.72
2023-01-10T06:14:49.241Z,101993.13
2023-01-10T06:17:18.541Z,101990.44
2023-01-10T06:19:47.694Z,101996.19
2023-01-10T06:22:16.943Z,102004.03
2023-01-10T06:24:48.071Z,102008.97
2023-01-10T06:27:17.706Z,102018.19
2023-01-10T06:29:46.813Z,102011.44
2023-01-10T06:32:26.174Z,101994.59
2023-01-10T06:37:39.592Z,101972.22
2023-01-10T06:40:16.760Z,102016.22
2023-01-10T06:42:51.018Z,102022.94
2023-01-10T06:50:51.201Z,102006.09
2023-01-10T06:53:20.441Z,102018.22
2023-01-10T06:55:51.505Z,101987.94
2023-01-10T06:58:20.621Z,102029.19
2023-01-10T07:00:50.137Z,102022.47
2023-01-10T07:03:24.424Z,102014.84
2023-01-10T07:05:53.922Z,102020.34
2023-01-10T07:08:23.070Z,102020.47
2023-01-10T07:10:54.637Z,101997.97
2023-01-10T07:13:24.004Z,102032.47
2023-01-10T07:16:02.525Z,102015.72
2023-01-10T07:18:31.876Z,102010.97
2023-01-10T07:21:01.386Z,102013.34
2023-01-10T07:23:30.818Z,102014.72
2023-01-10T07:26:05.346Z,102000.03
2023-01-10T07:28:35.201Z,102009.53
2023-01-10T07:31:05.804Z,102011.00
2023-01-10T07:36:23.871Z,102004.97
2023-01-10T07:38:53.249Z,102018.16
2023-01-10T07:41:24.755Z,102027.03
2023-01-10T07:44:01.014Z,102033.84
2023-01-10T07:46:30.302Z,102037.53
2023-01-10T07:48:59.490Z,102032.44
2023-01-10T07:51:28.760Z,101999.50
2023-01-10T07:53:57.934Z,102028.69
2023-01-10T07:56:29.091Z,102021.25
2023-01-10T07:59:03.329Z,102027.25
2023-01-10T08:01:32.654Z,102011.13
2023-01-10T08:04:01.949Z,102032.13
2023-01-10T08:06:31.267Z,102041.19
2023-01-10T08:09:03.465Z,102039.13
2023-01-10T08:11:34.743Z,102037.78
2023-01-10T08:14:03.972Z,102045.31
2023-01-10T08:16:33.559Z,102035.25
2023-01-10T08:19:03.086Z,102033.88
2023-01-10T08:21:32.415Z,102039.00
2023-01-10T08:24:01.548Z,102034.03
2023-01-10T08:26:39.227Z,102040.25
2023-01-10T08:29:08.358Z,102030.88
2023-01-10T08:31:37.665Z,102034.38
2023-01-10T08:34:06.843Z,102038.31
2023-01-10T08:36:51.935Z,102011.75
2023-01-10T08:39:26.225Z,102022.88
2023-01-10T08:41:57.334Z,102015.38
2023-01-10T08:44:26.747Z,101998.38
2023-01-10T08:47:06.017Z,102017.69
2023-01-10T08:49:35.360Z,101997.47
2023-01-10T08:52:05.988Z,102021.47
2023-01-10T08:54:35.259Z,102016.22
2023-01-10T08:57:06.479Z,102014.28
2023-01-10T08:59:35.768Z,102025.00
2023-01-10T09:02:05.083Z,102021.44
2023-01-10T09:04:46.076Z,101994.25
2023-01-10T09:07:20.304Z,102015.84
2023-01-10T09:09:49.603Z,101996.34
2023-01-10T09:12:38.660Z,102013.03
2023-01-10T09:15:14.385Z,101993.00
2023-01-10T09:17:43.535Z,102007.34
2023-01-10T09:20:13.229Z,101993.28
2023-01-10T09:22:42.531Z,102001.72
2023-01-10T09:28:02.507Z,102018.59
2023-01-10T09:30:32.748Z,102011.84
2023-01-10T09:35:52.294Z,102016.78
2023-01-10T09:38:22.001Z,101973.03
2023-01-10T09:41:11.038Z,102008.59
2023-01-10T09:43:53.686Z,101989.00
2023-01-10T09:46:28.873Z,101980.28
2023-01-10T09:49:06.597Z,101997.19
2023-01-10T09:51:40.232Z,101988.81
2023-01-10T09:54:17.491Z,101995.78
2023-01-10T09:56:49.118Z,102001.28
2023-01-10T09:59:22.035Z,101986.09
2023-01-10T10:02:00.054Z,101998.72
2023-01-10T10:04:32.959Z,101993.72
2023-01-10T10:07:03.686Z,102006.69
2023-01-10T10:09:35.853Z,101972.13
2023-01-10T10:12:28.123Z,101988.41
2023-01-10T10:15:11.631Z,101986.47
2023-01-10T10:17:49.850Z,101988.59
2023-01-10T10:20:33.591Z,101979.31
2023-01-10T10:23:15.854Z,101965.75
2023-01-10T10:25:57.662Z,101988.13
2023-01-10T10:28:41.191Z,101991.00
2023-01-10T10:31:29.210Z,101995.13
2023-01-10T10:34:07.135Z,101998.31
2023-01-10T10:36:41.261Z,101994.94
2023-01-10T10:39:22.558Z,101987.63
2023-01-10T10:41:55.036Z,101990.28
2023-01-10T10:44:38.786Z,101922.47
2023-01-10T10:47:18.940Z,101981.75
2023-01-10T10:49:53.073Z,101980.84
2023-01-10T10:52:26.396Z,101967.88
2023-01-10T10:54:59.217Z,101975.84
2023-01-10T10:57:30.910Z,101982.09
2023-01-10T11:00:02.026Z,101982.59
2023-01-10T11:02:45.360Z,101976.16
2023-01-10T11:05:20.964Z,101981.91
2023-01-10T11:07:52.014Z,101981.00
2023-01-10T11:10:38.644Z,101987.41
2023-01-10T11:13:18.641Z,101988.78
2023-01-10T11:15:56.014Z,101973.47
2023-01-10T11:18:29.193Z,101993.44
2023-01-10T11:21:00.981Z,101989.69
2023-01-10T11:23:45.161Z,101976.75
2023-01-10T11:26:28.201Z,102002.91
2023-01-10T11:29:09.151Z,101991.09
2023-01-10T11:31:39.064Z,101989.75
2023-01-10T11:34:23.446Z,101989.25
2023-01-10T11:37:01.650Z,101995.63
2023-01-10T11:39:37.874Z,101994.22
2023-01-10T11:42:29.360Z,101980.28
2023-01-10T11:45:23.878Z,101987.97
2023-01-10T11:47:56.246Z,101998.47
2023-01-10T11:50:30.998Z,101995.25
2023-01-10T11:53:01.105Z,102004.88
2023-01-10T11:55:39.728Z,102012.75
2023-01-10T11:58:12.311Z,101981.09
2023-01-10T12:00:45.089Z,102006.53
2023-01-10T12:03:27.043Z,102014.72
2023-01-10T12:06:07.885Z,101996.41
2023-01-10T12:08:41.954Z,101999.22
2023-01-10T12:11:27.944Z,102009.94
2023-01-10T12:13:59.488Z,102010.63
2023-01-10T12:16:31.013Z,102015.06
2023-01-10T12:19:01.857Z,102018.25
2023-01-10T12:21:41.781Z,102021.66
2023-01-10T12:24:17.180Z,102016.66
2023-01-10T12:26:50.495Z,102014.53
2023-01-10T12:29:24.927Z,102013.47
2023-01-10T12:31:56.607Z,102019.53
2023-01-10T12:34:27.447Z,102024.88
2023-01-10T12:37:06.824Z,102019.38
2023-01-10T12:39:41.284Z,102015.28
2023-01-10T12:42:37.465Z,102018.88
2023-01-10T12:45:11.894Z,102035.28
2023-01-10T12:54:20.728Z,102038.19
2023-01-10T12:56:51.323Z,102051.16
2023-01-10T12:59:37.912Z,102028.91
2023-01-10T13:04:58.048Z,102025.72
2023-01-10T13:07:32.511Z,102036.03
2023-01-10T13:10:13.387Z,102031.56
2023-01-10T13:12:51.347Z,102039.22
2023-01-10T13:15:31.629Z,102006.09
2023-01-10T13:18:05.653Z,102036.72
2023-01-10T13:20:43.295Z,102050.47
2023-01-10T13:26:11.967Z,102045.66
2023-01-10T13:28:53.128Z,102038.53
2023-01-10T13:31:27.516Z,102028.53
2023-01-10T13:34:00.950Z,102031.75
2023-01-10T13:36:37.532Z,101995.25
2023-01-10T13:39:08.700Z,102022.50
2023-01-10T13:42:25.694Z,102020.38
2023-01-10T13:45:30.979Z,102037.81
2023-01-10T13:48:26.525Z,102030.00
2023-01-10T13:51:18.387Z,102041.72
2023-01-10T13:54:00.555Z,102052.06
2023-01-10T13:56:40.465Z,102032.13
2023-01-10T13:59:28.677Z,102028.53
2023-01-10T14:02:17.135Z,102011.63
2023-01-10T14:05:02.057Z,102018.22
2023-01-10T14:07:35.133Z,102026.06
2023-01-10T14:10:07.696Z,102044.59
2023-01-10T14:12:42.186Z,102037.47
2023-01-10T14:15:26.078Z,102028.91
2023-01-10T14:18:01.942Z,102030.53
2023-01-10T14:20:35.213Z,102023.78
2023-01-10T14:23:08.547Z,102002.56
2023-01-10T14:25:43.179Z,102012.34
2023-01-10T14:28:24.443Z,102011.09
2023-01-10T14:31:04.286Z,102008.81
2023-01-10T14:33:34.889Z,102015.53
2023-01-10T14:36:16.575Z,102016.28
2023-01-10T14:38:47.271Z,102023.19
2023-01-10T14:41:24.732Z,102027.81
2023-01-10T14:43:59.523Z,102047.75
2023-01-10T14:46:40.453Z,102049.34
2023-01-10T14:49:23.179Z,102045.97
2023-01-10T14:52:15.236Z,102037.06
2023-01-10T14:54:44.633Z,102045.81
2023-01-10T14:57:21.981Z,102034.25
2023-01-10T14:59:52.472Z,102048.88
2023-01-10T15:02:24.985Z,102042.47
2023-01-10T15:07:44.204Z,102039.97
2023-01-10T15:10:24.595Z,102046.72
2023-01-10T15:12:56.566Z,102041.19
2023-01-10T15:15:34.246Z,102043.50
2023-01-10T15:18:08.816Z,101997.41
2023-01-10T15:20:43.358Z,102038.16
2023-01-10T15:23:17.390Z,102042.97
2023-01-10T15:25:46.621Z,102045.47
2023-01-10T15:28:19.194Z,102029.06
2023-01-10T15:30:49.341Z,102037.13
2023-01-10T15:33:31.631Z,102032.13
2023-01-10T15:36:06.250Z,102036.38
2023-01-10T15:38:39.850Z,102046.16
2023-01-10T15:41:10.391Z,102014.31
2023-01-10T15:43:54.016Z,102031.22
2023-01-10T15:46:26.396Z,102039.97
2023-01-10T15:49:02.979Z,102026.41
2023-01-10T15:51:36.615Z,102021.78
2023-01-10T15:54:29.360Z,102034.25
2023-01-10T15:57:06.440Z,102037.28
2023-01-10T15:59:40.474Z,102033.88
2023-01-10T16:02:26.175Z,102047.63
2023-01-10T16:07:36.813Z,102039.59
2023-01-10T16:10:17.361Z,102047.28
2023-01-10T16:12:59.743Z,102052.06
2023-01-10T16:15:31.177Z,102053.66
2023-01-10T16:18:02.014Z,102022.34
2023-01-10T16:20:33.441Z,102030.88
2023-01-10T16:23:03.218Z,102029.81
2023-01-10T16:25:38.695Z,102044.22
2023-01-10T16:28:08.153Z,102039.22
2023-01-10T16:30:40.154Z,102042.06
2023-01-10T16:33:15.802Z,102044.56
2023-01-10T16:35:45.447Z,102047.44
2023-01-10T16:38:15.520Z,102019.09
2023-01-10T16:40:51.063Z,102042.47
2023-01-10T16:43:18.483Z,102049.75
2023-01-10T16:45:48.693Z,102045.13
2023-01-10T16:48:18.963Z,102045.84
2023-01-10T16:50:49.374Z,102036.56
2023-01-10T16:53:20.264Z,102045.66
2023-01-10T16:55:53.683Z,102048.84
2023-01-10T16:58:23.267Z,102054.19
2023-01-10T17:00:54.068Z,102029.81
2023-01-10T17:03:25.813Z,102033.53
2023-01-10T17:05:55.035Z,102013.25
2023-01-10T17:11:24.711Z,102040.13
2023-01-10T17:13:54.095Z,102026.41
2023-01-10T17:16:23.794Z,102039.59
2023-01-10T17:21:41.760Z,102028.91
2023-01-10T17:24:12.344Z,102039.97
2023-01-10T17:26:43.566Z,102049.59
2023-01-10T17:29:18.243Z,102044.78
2023-01-10T17:31:48.798Z,102045.66
2023-01-10T17:34:18.026Z,102058.81
2023-01-10T17:36:47.293Z,102047.63
2023-01-10T17:39:16.700Z,102052.78
2023-01-10T17:41:49.359Z,102030.69
2023-01-10T17:44:20.800Z,102032.66
2023-01-10T17:46:56.713Z,102041.53
2023-01-10T17:49:26.265Z,102012.38
2023-01-10T17:52:03.346Z,102033.53
2023-01-10T17:54:34.643Z,102047.09
2023-01-10T17:57:07.094Z,102042.47
2023-01-10T17:59:36.430Z,102027.16
2023-01-10T18:02:06.212Z,102021.06
2023-01-10T18:04:49.003Z,102032.50
2023-01-10T18:07:18.259Z,101995.44
2023-01-10T18:09:47.498Z,102029.25
2023-01-10T18:12:18.708Z,102016.25
2023-01-10T18:14:49.334Z,102019.31
2023-01-10T18:17:19.243Z,102040.13
2023-01-10T18:19:48.797Z,102025.00
2023-01-10T18:22:31.053Z,102027.66
2023-01-10T18:27:37.506Z,102002.16
2023-01-10T18:30:08.003Z,102020.72
2023-01-10T18:32:37.242Z,101998.28
2023-01-10T18:35:07.140Z,102002.72
2023-01-10T18:40:20.522Z,102023.22
2023-01-10T18:42:53.793Z,102015.03
2023-01-10T18:45:26.122Z,102020.88
2023-01-10T18:48:03.660Z,102031.22
2023-01-10T18:50:33.204Z,102005.41
2023-01-10T18:53:02.390Z,102007.72
2023-01-10T18:55:31.668Z,101989.34
2023-01-10T18:58:08.964Z,102016.06
2023-01-10T19:00:39.097Z,102013.94
2023-01-10T19:03:09.017Z,102015.19
2023-01-10T19:05:38.533Z,102024.47
2023-01-10T19:08:08.044Z,102012.53
2023-01-10T19:10:57.261Z,101982.25
2023-01-10T19:13:28.575Z,102015.03
2023-01-10T19:16:09.971Z,102003.97
2023-01-10T19:18:39.701Z,102019.09
2023-01-10T19:24:05.795Z,102027.13
2023-01-10T19:26:40.087Z,102025.88
2023-01-10T19:29:11.252Z,102026.59
2023-01-10T19:31:46.512Z,102028.53
2023-01-10T19:34:16.403Z,101989.00
2023-01-10T19:36:46.102Z,102003.44
2023-01-10T19:39:16.246Z,102014.47
2023-01-10T19:41:45.689Z,101997.75
2023-01-10T19:44:18.179Z,102015.72
2023-01-10T19:46:48.653Z,101998.97
2023-01-10T19:49:19.361Z,102016.97
2023-01-10T19:51:50.883Z,102018.41
2023-01-10T19:54:21.035Z,101996.13
2023-01-10T19:56:50.634Z,102005.94
2023-01-10T19:59:22.017Z,102018.41
2023-01-10T20:01:51.494Z,102008.94
2023-01-10T20:04:20.928Z,102027.16
2023-01-10T20:06:50.575Z,102030.16
2023-01-10T20:09:20.244Z,102024.81
2023-01-10T20:11:49.524Z,102015.72
2023-01-10T20:14:24.181Z,101993.31
2023-01-10T20:16:54.003Z,102009.13
2023-01-10T20:19:23.363Z,102002.03
2023-01-10T20:21:52.659Z,102015.56
2023-01-10T20:24:27.168Z,102007.19
2023-01-10T20:27:04.177Z,102006.81
2023-01-10T20:29:35.758Z,102004.53
2023-01-10T20:32:05.058Z,102018.94
2023-01-10T20:34:34.406Z,101995.06
2023-01-10T20:37:03.708Z,102016.25
2023-01-10T20:39:33.181Z,102005.75
2023-01-10T20:42:02.519Z,102003.25
2023-01-10T20:44:31.779Z,102024.81
2023-01-10T20:47:05.463Z,102026.41
2023-01-10T20:49:34.922Z,102024.28
2023-01-10T20:52:04.222Z,102026.97
2023-01-10T20:54:34.706Z,102002.91
2023-01-10T20:57:03.834Z,102026.75
2023-01-10T20:59:38.269Z,102020.72
2023-01-10T21:02:12.196Z,102017.00
2023-01-10T21:04:41.497Z,102003.97
2023-01-10T21:07:10.628Z,102001.50
2023-01-10T21:09:40.442Z,102016.44
2023-01-10T21:12:22.976Z,102011.13
2023-01-10T21:14:53.399Z,102013.22
2023-01-10T21:20:04.958Z,102024.66
2023-01-10T21:22:34.200Z,102007.72
2023-01-10T21:27:49.161Z,101997.75
2023-01-10T21:30:24.585Z,101986.19
2023-01-10T21:32:55.769Z,101998.97
2023-01-10T21:35:25.002Z,102008.59
2023-01-10T21:37:55.849Z,101994.91
2023-01-10T21:40:31.424Z,102004.69
2023-01-10T21:43:02.247Z,101990.66
2023-01-10T21:45:32.038Z,101985.13
2023-01-10T21:48:03.032Z,101995.09
2023-01-10T21:50:33.276Z,102015.72
2023-01-10T21:53:02.434Z,102025.72
2023-01-10T21:55:32.414Z,102016.97
2023-01-10T21:58:06.565Z,102005.78
2023-01-10T22:00:35.687Z,102008.97
2023-01-10T22:03:11.913Z,102014.16
2023-01-10T22:05:41.166Z,101995.09
2023-01-10T22:08:10.314Z,102005.41
2023-01-10T22:10:39.602Z,102012.88
2023-01-10T22:13:08.884Z,102003.63
2023-01-10T22:15:40.592Z,102006.28
2023-01-10T22:18:11.451Z,102007.91
2023-01-10T22:20:40.634Z,102006.47
2023-01-10T22:23:09.765Z,102011.44
2023-01-10T22:25:38.917Z,101986.75
2023-01-10T22:28:13.075Z,102004.19
2023-01-10T22:30:42.386Z,102014.50
2023-01-10T22:33:13.515Z,102009.50
2023-01-10T22:35:42.712Z,102005.41
2023-01-10T22:38:11.832Z,101997.91
2023-01-10T22:43:16.081Z,102014.66
2023-01-10T22:45:45.446Z,101982.47
2023-01-10T22:48:23.778Z,101995.44
2023-01-10T22:50:54.262Z,101980.81
2023-01-10T22:53:23.516Z,101996.50
2023-01-10T22:55:52.805Z,101988.84
2023-01-10T22:58:22.085Z,101986.91
2023-01-10T23:00:51.313Z,101984.78
2023-01-10T23:03:22.686Z,101987.63
2023-01-10T23:05:56.778Z,101970.88
2023-01-10T23:08:26.596Z,101976.22
2023-01-10T23:10:56.067Z,101991.88
2023-01-10T23:13:31.574Z,101971.97
2023-01-10T23:16:02.999Z,101983.84
2023-01-10T23:18:34.824Z,101983.66
2023-01-10T23:21:09.431Z,101980.28
2023-01-10T23:23:38.647Z,101990.28
2023-01-10T23:26:09.566Z,101998.97
2023-01-10T23:28:52.240Z,101995.59
2023-01-10T23:31:23.576Z,101969.28
2023-01-10T23:33:54.946Z,101965.50
2023-01-10T23:36:36.375Z,101980.47
2023-01-10T23:39:07.190Z,101990.09
2023-01-10T23:41:41.669Z,101989.34
2023-01-10T23:44:16.010Z,101986.50
2023-01-10T23:46:45.304Z,101949.88
2023-01-10T23:49:16.292Z,101989.91
2023-01-10T23:51:45.476Z,101984.00
2023-01-10T23:54:16.968Z,101977.31
2023-01-10T23:56:45.933Z,101977.97
2023-01-10T23:59:14.924Z,101978.53
